Ocean King — CZ2591 — position and weather

sailwx.info

Track history (hours):
 
Tides and Currents Weather Stations Pressure Air Temp Water Temp Dewpoint Dewpoint Depression Visibility Wind Speed Wind Dir Waves Ship Positions

Ocean King

Last reported at 2016-Jun-29 01:33 UTC. Time now 2016-Jun-29 02:04 UTC.
Position N 48°56' W 125°32'.

Length 29 m; draft 4 m.

Type: Fishing. MMSI: 316003514.

Date/timePositionNaut miles runAvg speedWind from/ knotsBaromVisibWave heightAir tempDewpointWater temp
2016-Jun-29 01:33N 48°56' W 125°32'0 0.0
2016-Jun-29 00:33N 48°56' W 125°32'0 0.0
2016-Jun-28 23:33N 48°56' W 125°32'0 0.0
2016-Jun-28 22:33N 48°56' W 125°32'0 0.0
2016-Jun-28 21:33N 48°56' W 125°32'0 0.0
2016-Jun-28 20:33N 48°56' W 125°32'0 0.0
2016-Jun-28 19:33N 48°56' W 125°32'0 0.0
2016-Jun-28 18:33N 48°56' W 125°32'0 0.0
2016-Jun-28 17:33N 48°56' W 125°32'0 0.0
2016-Jun-28 16:34N 48°56' W 125°32'0 0.0
2016-Jun-28 15:33N 48°56' W 125°32'0 0.0
2016-Jun-28 14:33N 48°56' W 125°32'0 0.0
2016-Jun-28 13:33N 48°56' W 125°32'0 0.0
2016-Jun-28 12:33N 48°56' W 125°32'0 0.0
2016-Jun-28 11:33N 48°56' W 125°32'0 0.0
2016-Jun-28 10:33N 48°56' W 125°32'0 0.0
2016-Jun-28 09:33N 48°56' W 125°32'0 0.0
2016-Jun-28 08:33N 48°56' W 125°32'0 0.0
2016-Jun-28 07:33N 48°56' W 125°32'0 0.0
2016-Jun-28 06:33N 48°56' W 125°32'0 0.0
2016-Jun-28 04:33N 48°56' W 125°32'0 0.0
2016-Jun-28 03:33N 48°56' W 125°32'0 0.0
2016-Jun-28 02:33N 48°56' W 125°32'0 0.0
2016-Jun-28 01:33N 48°56' W 125°32'0 0.0
2016-Jun-28 00:33N 48°56' W 125°32'0 0.0
2016-Jun-27 23:33N 48°56' W 125°32'0 0.0
2016-Jun-27 22:33N 48°56' W 125°32'0 0.0
2016-Jun-27 21:33N 48°56' W 125°32'0 0.0
2016-Jun-27 20:33N 48°56' W 125°32'0 0.0
2016-Jun-27 19:33N 48°56' W 125°32'0 0.0
2016-Jun-27 18:33N 48°56' W 125°32'0 0.0
2016-Jun-27 17:33N 48°56' W 125°32'0 0.0
2016-Jun-27 16:33N 48°56' W 125°32'0 0.0
2016-Jun-27 15:33N 48°56' W 125°32'0 0.0
2016-Jun-27 14:33N 48°56' W 125°32'0 0.0
2016-Jun-27 13:33N 48°56' W 125°32'0 0.0
2016-Jun-27 12:33N 48°56' W 125°32'0 0.0
2016-Jun-27 11:33N 48°56' W 125°32'0 0.0
2016-Jun-27 10:33N 48°56' W 125°32'0 0.0
2016-Jun-27 09:33N 48°56' W 125°32'0 0.0
2016-Jun-27 08:33N 48°56' W 125°32'0 0.0
2016-Jun-27 07:33N 48°56' W 125°32'0 0.0
2016-Jun-27 06:33N 48°56' W 125°32'0 0.0
2016-Jun-27 05:33N 48°56' W 125°32'0 0.0
2016-Jun-27 04:33N 48°56' W 125°32'0 0.0
2016-Jun-27 03:33N 48°56' W 125°32'0 0.0
2016-Jun-27 02:33N 48°56' W 125°32'0 0.0
2016-Jun-27 01:33N 48°56' W 125°32'0 0.0
2016-Jun-27 00:33N 48°56' W 125°32'0 0.0
2016-Jun-26 23:33N 48°56' W 125°32'0 0.0
2016-Jun-26 22:33N 48°56' W 125°32'0 0.0
2016-Jun-26 21:33N 48°56' W 125°32'0 0.0
2016-Jun-26 20:33N 48°56' W 125°32'0 0.0
2016-Jun-26 19:33N 48°56' W 125°32'0 0.0
2016-Jun-26 18:33N 48°56' W 125°32'0 0.0
2016-Jun-26 17:33N 48°56' W 125°32'0 0.0
2016-Jun-26 16:33N 48°56' W 125°32'0 0.0
2016-Jun-26 15:33N 48°56' W 125°32'0 0.0
2016-Jun-26 14:33N 48°56' W 125°32'0 0.0
2016-Jun-26 13:33N 48°56' W 125°32'0 0.0
2016-Jun-26 12:33N 48°56' W 125°32'0 0.0
2016-Jun-26 11:33N 48°56' W 125°32'0 0.0
2016-Jun-26 10:33N 48°56' W 125°32'0 0.0
2016-Jun-26 09:33N 48°56' W 125°32'3 3.1
2016-Jun-26 08:33N 48°56' W 125°37'7 6.7
2016-Jun-26 07:33N 48°59' W 125°46'7 7.0
2016-Jun-26 06:33N 49°01' W 125°56'7 7.3
2016-Jun-26 05:33N 49°04' W 126°07'7 7.0
2016-Jun-26 04:33N 49°07' W 126°17'7 6.7
2016-Jun-26 03:33N 49°09' W 126°26'6 6.4
2016-Jun-26 02:34N 49°11' W 126°35'6 6.2
2016-Jun-26 01:33N 49°14' W 126°44'5 5.1
2016-Jun-26 00:33N 49°15' W 126°52'14 1.2
2016-Jun-25 13:18N 49°25' W 127°06'6 8.4
2016-Jun-25 12:33N 49°23' W 126°57'9 8.6
2016-Jun-25 11:33N 49°19' W 126°46'9 8.6
2016-Jun-25 10:34N 49°15' W 126°34'8 8.4
2016-Jun-25 09:33N 49°11' W 126°23'8 8.4
2016-Jun-25 08:33N 49°06' W 126°12'8 8.3
2016-Jun-25 07:33N 49°03' W 126°00'8 8.4
2016-Jun-25 06:33N 48°59' W 125°49'9 8.6
2016-Jun-25 05:33N 48°56' W 125°37'3 3.0
2016-Jun-25 04:33N 48°56' W 125°32'0 0.0
2016-Jun-25 03:09N 48°56' W 125°32'0 0.0
2016-Jun-25 02:33N 48°56' W 125°32'0 0.0
2016-Jun-25 01:33N 48°56' W 125°32'0 0.0
2016-Jun-25 00:33N 48°56' W 125°32'0 0.0
2016-Jun-24 23:33N 48°56' W 125°32'0 0.0
2016-Jun-24 22:33N 48°56' W 125°32'0 0.0
2016-Jun-24 21:33N 48°56' W 125°32'0 0.0
2016-Jun-24 20:33N 48°56' W 125°32'0 0.0
2016-Jun-24 19:33N 48°56' W 125°32'0 0.0
2016-Jun-24 18:33N 48°56' W 125°32'0 0.0
2016-Jun-24 17:33N 48°56' W 125°32'0 0.0
2016-Jun-24 16:33N 48°56' W 125°32'0 0.0
2016-Jun-24 15:33N 48°56' W 125°32'1 1.5
2016-Jun-24 14:33N 48°55' W 125°34'8 7.7
2016-Jun-24 13:33N 48°58' W 125°45'8 8.2
2016-Jun-24 12:33N 49°02' W 125°56'8 8.4
2016-Jun-24 11:33N 49°04' W 126°09'8 8.1
2016-Jun-24 10:33N 49°08' W 126°20'8 7.7
2016-Jun-24 09:33N 49°12' W 126°30'8 8.3
2016-Jun-24 08:33N 49°17' W 126°39'7 6.9
2016-Jun-24 07:33N 49°20' W 126°49'8 7.8
2016-Jun-24 06:30N 49°24' W 127°00'3 0.2
2016-Jun-23 19:15N 49°26' W 126°57'6 8.2
2016-Jun-23 18:33N 49°24' W 126°50'8 8.3
2016-Jun-23 17:33N 49°19' W 126°39'9 8.5
2016-Jun-23 16:33N 49°15' W 126°27'9 8.6
2016-Jun-23 15:33N 49°11' W 126°16'9 8.6
2016-Jun-23 14:34N 49°07' W 126°05'9 9.0
2016-Jun-23 13:34N 49°02' W 125°53'9 9.1
2016-Jun-23 12:34N 48°57' W 125°41'6 5.8
2016-Jun-23 11:33N 48°56' W 125°32'0 0.0
2016-Jun-23 10:34N 48°56' W 125°32'0 0.0
2016-Jun-23 09:33N 48°56' W 125°32'0 0.0
2016-Jun-23 08:34N 48°56' W 125°32'0 0.0
2016-Jun-23 07:33N 48°56' W 125°32'3 1.3
2016-Jun-23 05:33N 48°55' W 125°35'9 8.7
2016-Jun-23 04:34N 48°58' W 125°48'9 9.0
2016-Jun-23 03:33N 49°04' W 125°59'9 9.1
2016-Jun-23 02:34N 49°09' W 126°10'9 8.5
2016-Jun-23 01:31N 49°14' W 126°21'8 8.1
2016-Jun-23 00:34N 49°18' W 126°31'7 7.4
2016-Jun-22 23:34N 49°22' W 126°41'7 7.4
2016-Jun-22 22:33N 49°25' W 126°51'8 7.6
2016-Jun-22 21:31N 49°29' W 127°02'7 0.3
2016-Jun-21 18:05N 49°22' W 127°01'5 9.9
2016-Jun-21 17:33N 49°20' W 126°54'9 9.0
2016-Jun-21 16:33N 49°17' W 126°41'8 8.3
2016-Jun-21 15:33N 49°15' W 126°28'7 7.3
2016-Jun-21 14:33N 49°11' W 126°19'8 7.5
2016-Jun-21 13:33N 49°07' W 126°09'7 7.3
2016-Jun-21 12:33N 49°04' W 125°59'7 7.5
2016-Jun-21 11:33N 49°01' W 125°49'8 7.7
2016-Jun-21 10:33N 48°57' W 125°39'4 4.4
2016-Jun-21 09:33N 48°56' W 125°32'0 0.1
2016-Jun-21 08:33N 48°56' W 125°32'0 0.0
2016-Jun-21 07:33N 48°56' W 125°32'0 0.0
2016-Jun-21 05:33N 48°56' W 125°32'0 0.0
2016-Jun-21 04:33N 48°56' W 125°32'0 0.0
2016-Jun-21 03:33N 48°56' W 125°32'3 3.0
2016-Jun-21 02:33N 48°57' W 125°37'9 8.9
2016-Jun-21 01:33N 49°01' W 125°49'9 9.3
2016-Jun-21 00:33N 49°05' W 126°02'9 8.7
2016-Jun-20 23:33N 49°09' W 126°13'8 8.1
2016-Jun-20 22:33N 49°13' W 126°24'8 7.9
2016-Jun-20 21:33N 49°16' W 126°35'4 4.2
2016-Jun-20 20:33N 49°18' W 126°41'7 6.5
2016-Jun-20 19:33N 49°22' W 126°49'9 8.4
2016-Jun-20 18:28N 49°27' W 127°00'14 0.6
2016-Jun-19 20:12N 49°13' W 127°03'1 1.7
2016-Jun-19 19:28N 49°14' W 127°04'2 2.1
2016-Jun-19 18:16N 49°16' W 127°06'2 2.0
2016-Jun-19 17:12N 49°15' W 127°04'2 2.3
2016-Jun-19 16:33N 49°13' W 127°03'0 0.4
2016-Jun-19 15:29N 49°13' W 127°03'1 0.4
2016-Jun-19 13:31N 49°13' W 127°02'7 6.8
2016-Jun-19 12:31N 49°12' W 126°52'1 0.7
2016-Jun-19 11:33N 49°12' W 126°53'1 0.7
2016-Jun-19 10:26N 49°13' W 126°53'1 0.8
2016-Jun-19 09:32N 49°13' W 126°54'1 0.7
2016-Jun-19 08:29N 49°14' W 126°55'1 0.7
2016-Jun-19 07:33N 49°14' W 126°56'1 0.7
2016-Jun-19 06:18N 49°15' W 126°57'1 0.6
2016-Jun-19 04:33N 49°15' W 126°58'1 1.3
2016-Jun-19 03:32N 49°13' W 126°59'5 4.5
2016-Jun-19 02:28N 49°16' W 127°05'  
Track history (hours):
 
Tides and Currents Weather Stations Pressure Air Temp Water Temp Dewpoint Dewpoint Depression Visibility Wind Speed Wind Dir Waves Ship Positions

Ocean King

Last reported at 2016-Jun-29 01:33 UTC. Time now 2016-Jun-29 02:04 UTC.
Position N 48°56' W 125°32'.

Length 29 m; draft 4 m.

Type: Fishing. MMSI: 316003514.

Date/timePositionNaut miles runAvg speedWind from/ knotsBaromVisibWave heightAir tempDewpointWater temp
2016-Jun-29 01:33N 48°56' W 125°32'0 0.0
2016-Jun-29 00:33N 48°56' W 125°32'0 0.0
2016-Jun-28 23:33N 48°56' W 125°32'0 0.0
2016-Jun-28 22:33N 48°56' W 125°32'0 0.0
2016-Jun-28 21:33N 48°56' W 125°32'0 0.0
2016-Jun-28 20:33N 48°56' W 125°32'0 0.0
2016-Jun-28 19:33N 48°56' W 125°32'0 0.0
2016-Jun-28 18:33N 48°56' W 125°32'0 0.0
2016-Jun-28 17:33N 48°56' W 125°32'0 0.0
2016-Jun-28 16:34N 48°56' W 125°32'0 0.0
2016-Jun-28 15:33N 48°56' W 125°32'0 0.0
2016-Jun-28 14:33N 48°56' W 125°32'0 0.0
2016-Jun-28 13:33N 48°56' W 125°32'0 0.0
2016-Jun-28 12:33N 48°56' W 125°32'0 0.0
2016-Jun-28 11:33N 48°56' W 125°32'0 0.0
2016-Jun-28 10:33N 48°56' W 125°32'0 0.0
2016-Jun-28 09:33N 48°56' W 125°32'0 0.0
2016-Jun-28 08:33N 48°56' W 125°32'0 0.0
2016-Jun-28 07:33N 48°56' W 125°32'0 0.0
2016-Jun-28 06:33N 48°56' W 125°32'0 0.0
2016-Jun-28 04:33N 48°56' W 125°32'0 0.0
2016-Jun-28 03:33N 48°56' W 125°32'0 0.0
2016-Jun-28 02:33N 48°56' W 125°32'0 0.0
2016-Jun-28 01:33N 48°56' W 125°32'0 0.0
2016-Jun-28 00:33N 48°56' W 125°32'0 0.0
2016-Jun-27 23:33N 48°56' W 125°32'0 0.0
2016-Jun-27 22:33N 48°56' W 125°32'0 0.0
2016-Jun-27 21:33N 48°56' W 125°32'0 0.0
2016-Jun-27 20:33N 48°56' W 125°32'0 0.0
2016-Jun-27 19:33N 48°56' W 125°32'0 0.0
2016-Jun-27 18:33N 48°56' W 125°32'0 0.0
2016-Jun-27 17:33N 48°56' W 125°32'0 0.0
2016-Jun-27 16:33N 48°56' W 125°32'0 0.0
2016-Jun-27 15:33N 48°56' W 125°32'0 0.0
2016-Jun-27 14:33N 48°56' W 125°32'0 0.0
2016-Jun-27 13:33N 48°56' W 125°32'0 0.0
2016-Jun-27 12:33N 48°56' W 125°32'0 0.0
2016-Jun-27 11:33N 48°56' W 125°32'0 0.0
2016-Jun-27 10:33N 48°56' W 125°32'0 0.0
2016-Jun-27 09:33N 48°56' W 125°32'0 0.0
2016-Jun-27 08:33N 48°56' W 125°32'0 0.0
2016-Jun-27 07:33N 48°56' W 125°32'0 0.0
2016-Jun-27 06:33N 48°56' W 125°32'0 0.0
2016-Jun-27 05:33N 48°56' W 125°32'0 0.0
2016-Jun-27 04:33N 48°56' W 125°32'0 0.0
2016-Jun-27 03:33N 48°56' W 125°32'0 0.0
2016-Jun-27 02:33N 48°56' W 125°32'0 0.0
2016-Jun-27 01:33N 48°56' W 125°32'0 0.0
2016-Jun-27 00:33N 48°56' W 125°32'0 0.0
2016-Jun-26 23:33N 48°56' W 125°32'0 0.0
2016-Jun-26 22:33N 48°56' W 125°32'0 0.0
2016-Jun-26 21:33N 48°56' W 125°32'0 0.0
2016-Jun-26 20:33N 48°56' W 125°32'0 0.0
2016-Jun-26 19:33N 48°56' W 125°32'0 0.0
2016-Jun-26 18:33N 48°56' W 125°32'0 0.0
2016-Jun-26 17:33N 48°56' W 125°32'0 0.0
2016-Jun-26 16:33N 48°56' W 125°32'0 0.0
2016-Jun-26 15:33N 48°56' W 125°32'0 0.0
2016-Jun-26 14:33N 48°56' W 125°32'0 0.0
2016-Jun-26 13:33N 48°56' W 125°32'0 0.0
2016-Jun-26 12:33N 48°56' W 125°32'0 0.0
2016-Jun-26 11:33N 48°56' W 125°32'0 0.0
2016-Jun-26 10:33N 48°56' W 125°32'0 0.0
2016-Jun-26 09:33N 48°56' W 125°32'3 3.1
2016-Jun-26 08:33N 48°56' W 125°37'7 6.7
2016-Jun-26 07:33N 48°59' W 125°46'7 7.0
2016-Jun-26 06:33N 49°01' W 125°56'7 7.3
2016-Jun-26 05:33N 49°04' W 126°07'7 7.0
2016-Jun-26 04:33N 49°07' W 126°17'7 6.7
2016-Jun-26 03:33N 49°09' W 126°26'6 6.4
2016-Jun-26 02:34N 49°11' W 126°35'6 6.2
2016-Jun-26 01:33N 49°14' W 126°44'5 5.1
2016-Jun-26 00:33N 49°15' W 126°52'14 1.2
2016-Jun-25 13:18N 49°25' W 127°06'6 8.4
2016-Jun-25 12:33N 49°23' W 126°57'9 8.6
2016-Jun-25 11:33N 49°19' W 126°46'9 8.6
2016-Jun-25 10:34N 49°15' W 126°34'8 8.4
2016-Jun-25 09:33N 49°11' W 126°23'8 8.4
2016-Jun-25 08:33N 49°06' W 126°12'8 8.3
2016-Jun-25 07:33N 49°03' W 126°00'8 8.4
2016-Jun-25 06:33N 48°59' W 125°49'9 8.6
2016-Jun-25 05:33N 48°56' W 125°37'3 3.0
2016-Jun-25 04:33N 48°56' W 125°32'0 0.0
2016-Jun-25 03:09N 48°56' W 125°32'0 0.0
2016-Jun-25 02:33N 48°56' W 125°32'0 0.0
2016-Jun-25 01:33N 48°56' W 125°32'0 0.0
2016-Jun-25 00:33N 48°56' W 125°32'0 0.0
2016-Jun-24 23:33N 48°56' W 125°32'0 0.0
2016-Jun-24 22:33N 48°56' W 125°32'0 0.0
2016-Jun-24 21:33N 48°56' W 125°32'0 0.0
2016-Jun-24 20:33N 48°56' W 125°32'0 0.0
2016-Jun-24 19:33N 48°56' W 125°32'0 0.0
2016-Jun-24 18:33N 48°56' W 125°32'0 0.0
2016-Jun-24 17:33N 48°56' W 125°32'0 0.0
2016-Jun-24 16:33N 48°56' W 125°32'0 0.0
2016-Jun-24 15:33N 48°56' W 125°32'1 1.5
2016-Jun-24 14:33N 48°55' W 125°34'8 7.7
2016-Jun-24 13:33N 48°58' W 125°45'8 8.2
2016-Jun-24 12:33N 49°02' W 125°56'8 8.4
2016-Jun-24 11:33N 49°04' W 126°09'8 8.1
2016-Jun-24 10:33N 49°08' W 126°20'8 7.7
2016-Jun-24 09:33N 49°12' W 126°30'8 8.3
2016-Jun-24 08:33N 49°17' W 126°39'7 6.9
2016-Jun-24 07:33N 49°20' W 126°49'8 7.8
2016-Jun-24 06:30N 49°24' W 127°00'3 0.2
2016-Jun-23 19:15N 49°26' W 126°57'6 8.2
2016-Jun-23 18:33N 49°24' W 126°50'8 8.3
2016-Jun-23 17:33N 49°19' W 126°39'9 8.5
2016-Jun-23 16:33N 49°15' W 126°27'9 8.6
2016-Jun-23 15:33N 49°11' W 126°16'9 8.6
2016-Jun-23 14:34N 49°07' W 126°05'9 9.0
2016-Jun-23 13:34N 49°02' W 125°53'9 9.1
2016-Jun-23 12:34N 48°57' W 125°41'6 5.8
2016-Jun-23 11:33N 48°56' W 125°32'0 0.0
2016-Jun-23 10:34N 48°56' W 125°32'0 0.0
2016-Jun-23 09:33N 48°56' W 125°32'0 0.0
2016-Jun-23 08:34N 48°56' W 125°32'0 0.0
2016-Jun-23 07:33N 48°56' W 125°32'3 1.3
2016-Jun-23 05:33N 48°55' W 125°35'9 8.7
2016-Jun-23 04:34N 48°58' W 125°48'9 9.0
2016-Jun-23 03:33N 49°04' W 125°59'9 9.1
2016-Jun-23 02:34N 49°09' W 126°10'9 8.5
2016-Jun-23 01:31N 49°14' W 126°21'8 8.1
2016-Jun-23 00:34N 49°18' W 126°31'7 7.4
2016-Jun-22 23:34N 49°22' W 126°41'7 7.4
2016-Jun-22 22:33N 49°25' W 126°51'8 7.6
2016-Jun-22 21:31N 49°29' W 127°02'7 0.3
2016-Jun-21 18:05N 49°22' W 127°01'5 9.9
2016-Jun-21 17:33N 49°20' W 126°54'9 9.0
2016-Jun-21 16:33N 49°17' W 126°41'8 8.3
2016-Jun-21 15:33N 49°15' W 126°28'7 7.3
2016-Jun-21 14:33N 49°11' W 126°19'8 7.5
2016-Jun-21 13:33N 49°07' W 126°09'7 7.3
2016-Jun-21 12:33N 49°04' W 125°59'7 7.5
2016-Jun-21 11:33N 49°01' W 125°49'8 7.7
2016-Jun-21 10:33N 48°57' W 125°39'4 4.4
2016-Jun-21 09:33N 48°56' W 125°32'0 0.1
2016-Jun-21 08:33N 48°56' W 125°32'0 0.0
2016-Jun-21 07:33N 48°56' W 125°32'0 0.0
2016-Jun-21 05:33N 48°56' W 125°32'0 0.0
2016-Jun-21 04:33N 48°56' W 125°32'0 0.0
2016-Jun-21 03:33N 48°56' W 125°32'3 3.0
2016-Jun-21 02:33N 48°57' W 125°37'9 8.9
2016-Jun-21 01:33N 49°01' W 125°49'9 9.3
2016-Jun-21 00:33N 49°05' W 126°02'9 8.7
2016-Jun-20 23:33N 49°09' W 126°13'8 8.1
2016-Jun-20 22:33N 49°13' W 126°24'8 7.9
2016-Jun-20 21:33N 49°16' W 126°35'4 4.2
2016-Jun-20 20:33N 49°18' W 126°41'7 6.5
2016-Jun-20 19:33N 49°22' W 126°49'9 8.4
2016-Jun-20 18:28N 49°27' W 127°00'14 0.6
2016-Jun-19 20:12N 49°13' W 127°03'1 1.7
2016-Jun-19 19:28N 49°14' W 127°04'2 2.1
2016-Jun-19 18:16N 49°16' W 127°06'2 2.0
2016-Jun-19 17:12N 49°15' W 127°04'2 2.3
2016-Jun-19 16:33N 49°13' W 127°03'0 0.4
2016-Jun-19 15:29N 49°13' W 127°03'1 0.4
2016-Jun-19 13:31N 49°13' W 127°02'7 6.8
2016-Jun-19 12:31N 49°12' W 126°52'1 0.7
2016-Jun-19 11:33N 49°12' W 126°53'1 0.7
2016-Jun-19 10:26N 49°13' W 126°53'1 0.8
2016-Jun-19 09:32N 49°13' W 126°54'1 0.7
2016-Jun-19 08:29N 49°14' W 126°55'1 0.7
2016-Jun-19 07:33N 49°14' W 126°56'1 0.7
2016-Jun-19 06:18N 49°15' W 126°57'1 0.6
2016-Jun-19 04:33N 49°15' W 126°58'1 1.3
2016-Jun-19 03:32N 49°13' W 126°59'5 4.5
2016-Jun-19 02:28N 49°16' W 127°05'  

Dump ship's entire track history